createdAt,value
2023-01-02T00:00:20.718Z,100
2023-01-02T00:01:22.373Z,100
2023-01-02T00:02:29.617Z,100
2023-01-02T00:03:36.799Z,97
2023-01-02T00:04:43.200Z,100
2023-01-02T00:05:50.340Z,100
2023-01-02T00:06:57.449Z,97
2023-01-02T00:08:04.636Z,97
2023-01-02T00:09:11.656Z,100
2023-01-02T00:10:18.214Z,97
2023-01-02T00:11:25.373Z,97
2023-01-02T00:12:32.403Z,100
2023-01-02T00:13:39.652Z,100
2023-01-02T00:14:46.657Z,97
2023-01-02T00:15:53.277Z,100
2023-01-02T00:17:00.341Z,97
2023-01-02T00:18:07.997Z,100
2023-01-02T00:19:14.587Z,100
2023-01-02T00:20:21.666Z,97
2023-01-02T00:21:28.211Z,97
2023-01-02T00:22:35.300Z,97
2023-01-02T00:23:42.423Z,100
2023-01-02T00:24:49.608Z,97
2023-01-02T00:25:56.634Z,97
2023-01-02T00:27:03.228Z,97
2023-01-02T00:28:10.400Z,97
2023-01-02T00:29:17.523Z,97
2023-01-02T00:30:24.606Z,97
2023-01-02T00:31:31.774Z,97
2023-01-02T00:32:38.240Z,97
2023-01-02T00:33:45.351Z,97
2023-01-02T00:34:52.465Z,97
2023-01-02T00:35:59.625Z,97
2023-01-02T00:37:06.608Z,97
2023-01-02T00:38:13.194Z,97
2023-01-02T00:39:20.883Z,97
2023-01-02T00:40:27.496Z,97
2023-01-02T00:41:34.521Z,97
2023-01-02T00:42:41.739Z,97
2023-01-02T00:43:48.273Z,97
2023-01-02T00:44:55.375Z,97
2023-01-02T00:47:09.672Z,97
2023-01-02T00:48:16.680Z,97
2023-01-02T00:49:23.232Z,97
2023-01-02T00:50:30.355Z,97
2023-01-02T00:51:37.521Z,97
2023-01-02T00:52:44.526Z,97
2023-01-02T00:53:51.665Z,97
2023-01-02T00:54:58.285Z,97
2023-01-02T00:56:05.364Z,97
2023-01-02T00:57:12.525Z,97
2023-01-02T00:58:19.596Z,97
2023-01-02T00:59:26.686Z,97
2023-01-02T01:00:33.397Z,97
2023-01-02T01:01:40.597Z,97
2023-01-02T01:03:54.601Z,100
2023-01-02T01:05:01.703Z,100
2023-01-02T01:06:08.320Z,100
2023-01-02T01:07:15.434Z,100
2023-01-02T01:08:22.497Z,100
2023-01-02T01:09:29.642Z,100
2023-01-02T01:10:36.817Z,100
2023-01-02T01:11:43.354Z,100
2023-01-02T01:12:50.416Z,100
2023-01-02T01:13:57.471Z,100
2023-01-02T01:15:04.600Z,100
2023-01-02T01:16:11.872Z,100
2023-01-02T01:17:18.361Z,100
2023-01-02T01:18:25.391Z,100
2023-01-02T01:19:32.459Z,100
2023-01-02T01:20:39.635Z,100
2023-01-02T01:21:46.980Z,100
2023-01-02T01:22:53.299Z,100
2023-01-02T01:24:00.400Z,100
2023-01-02T01:25:07.534Z,100
2023-01-02T01:26:14.610Z,100
2023-01-02T01:27:21.292Z,100
2023-01-02T01:28:28.335Z,100
2023-01-02T01:29:35.430Z,100
2023-01-02T01:30:42.525Z,100
2023-01-02T01:31:49.749Z,100
2023-01-02T01:32:56.211Z,100
2023-01-02T01:34:03.287Z,100
2023-01-02T01:35:10.560Z,100
2023-01-02T01:36:17.514Z,100
2023-01-02T01:37:24.625Z,100
2023-01-02T01:38:31.727Z,100
2023-01-02T01:39:38.306Z,100
2023-01-02T01:40:45.382Z,100
2023-01-02T01:41:52.551Z,100
2023-01-02T01:43:01.116Z,100
2023-01-02T01:44:06.761Z,100
2023-01-02T01:45:13.320Z,100
2023-01-02T01:46:20.470Z,100
2023-01-02T01:47:27.609Z,100
2023-01-02T01:48:34.634Z,100
2023-01-02T01:49:41.756Z,100
2023-01-02T01:50:48.332Z,100
2023-01-02T01:51:55.493Z,100
2023-01-02T01:53:02.531Z,100
2023-01-02T01:54:09.669Z,100
2023-01-02T01:55:16.803Z,100
2023-01-02T01:56:23.336Z,100
2023-01-02T01:57:30.449Z,100
2023-01-02T01:58:37.582Z,100
2023-01-02T01:59:44.627Z,100
2023-01-02T02:00:51.293Z,100
2023-01-02T02:01:58.628Z,100
2023-01-02T02:03:05.496Z,100
2023-01-02T02:04:12.556Z,100
2023-01-02T02:05:19.677Z,100
2023-01-02T02:08:40.643Z,100
2023-01-02T02:09:47.067Z,100
2023-01-02T02:10:54.653Z,100
2023-01-02T02:12:01.429Z,100
2023-01-02T02:13:08.415Z,100
2023-01-02T02:15:22.638Z,100
2023-01-02T02:16:29.783Z,100
2023-01-02T02:17:36.795Z,100
2023-01-02T02:18:43.364Z,100
2023-01-02T02:19:50.494Z,100
2023-01-02T02:20:57.670Z,100
2023-01-02T02:22:04.681Z,100
2023-01-02T02:23:11.319Z,100
2023-01-02T02:24:18.411Z,100
2023-01-02T02:25:26.008Z,100
2023-01-02T02:26:32.645Z,100
2023-01-02T02:27:39.727Z,100
2023-01-02T02:28:46.311Z,100
2023-01-02T02:29:53.383Z,100
2023-01-02T02:31:00.518Z,100
2023-01-02T02:32:07.748Z,100
2023-01-02T02:33:14.703Z,100
2023-01-02T02:34:21.321Z,100
2023-01-02T02:35:28.398Z,100
2023-01-02T02:36:35.534Z,100
2023-01-02T02:37:42.639Z,100
2023-01-02T02:38:49.775Z,100
2023-01-02T02:39:56.341Z,100
2023-01-02T02:41:03.404Z,100
2023-01-02T02:42:10.586Z,100
2023-01-02T02:43:17.637Z,100
2023-01-02T02:44:24.689Z,100
2023-01-02T02:45:31.358Z,100
2023-01-02T02:46:38.451Z,100
2023-01-02T02:47:45.549Z,100
2023-01-02T02:48:52.620Z,100
2023-01-02T02:49:59.706Z,100
2023-01-02T02:52:13.467Z,100
2023-01-02T02:53:20.564Z,100
2023-01-02T02:54:27.619Z,100
2023-01-02T02:55:34.731Z,100
2023-01-02T02:56:41.481Z,100
2023-01-02T02:57:48.460Z,100
2023-01-02T02:58:55.552Z,100
2023-01-02T03:00:02.631Z,100
2023-01-02T03:01:09.797Z,100
2023-01-02T03:02:16.668Z,100
2023-01-02T03:03:23.570Z,100
2023-01-02T03:04:30.543Z,100
2023-01-02T03:05:37.670Z,100
2023-01-02T03:06:44.810Z,100
2023-01-02T03:07:51.386Z,100
2023-01-02T03:08:58.455Z,100
2023-01-02T03:11:12.753Z,100
2023-01-02T03:12:20.238Z,100
2023-01-02T03:13:26.390Z,100
2023-01-02T03:14:33.434Z,100
2023-01-02T03:15:40.571Z,100
2023-01-02T03:16:47.751Z,100
2023-01-02T03:17:54.736Z,100
2023-01-02T03:19:01.337Z,100
2023-01-02T03:20:08.473Z,100
2023-01-02T03:21:15.538Z,100
2023-01-02T03:22:22.711Z,100
2023-01-02T03:23:29.305Z,100
2023-01-02T03:24:36.379Z,100
2023-01-02T03:25:43.452Z,100
2023-01-02T03:26:50.641Z,100
2023-01-02T03:27:57.646Z,100
2023-01-02T03:29:04.775Z,100
2023-01-02T03:30:11.362Z,100
2023-01-02T03:31:18.542Z,100
2023-01-02T03:32:25.639Z,100
2023-01-02T03:33:32.677Z,100
2023-01-02T03:34:39.265Z,100
2023-01-02T03:35:46.389Z,100
2023-01-02T03:36:53.450Z,100
2023-01-02T03:38:00.542Z,100
2023-01-02T03:39:07.724Z,100
2023-01-02T03:40:14.751Z,100
2023-01-02T03:41:21.429Z,100
2023-01-02T03:43:35.646Z,100
2023-01-02T03:44:42.681Z,100
2023-01-02T03:45:49.391Z,100
2023-01-02T03:46:56.468Z,100
2023-01-02T03:48:03.602Z,100
2023-01-02T03:49:10.629Z,100
2023-01-02T03:50:17.705Z,100
2023-01-02T03:51:24.293Z,100
2023-01-02T03:52:31.483Z,100
2023-01-02T03:53:38.495Z,100
2023-01-02T03:54:45.665Z,100
2023-01-02T03:55:52.713Z,100
2023-01-02T03:56:59.294Z,100
2023-01-02T03:58:06.409Z,100
2023-01-02T03:59:13.475Z,100
2023-01-02T04:00:20.617Z,100
2023-01-02T04:01:27.856Z,100
2023-01-02T04:02:34.972Z,100
2023-01-02T04:03:41.403Z,100
2023-01-02T04:04:50.937Z,100
2023-01-02T04:05:55.627Z,100
2023-01-02T04:07:02.782Z,100
2023-01-02T04:08:09.334Z,100
2023-01-02T04:09:16.451Z,100
2023-01-02T04:10:23.514Z,100
2023-01-02T04:11:30.672Z,100
2023-01-02T04:12:37.815Z,100
2023-01-02T04:13:44.340Z,100
2023-01-02T04:14:51.476Z,100
2023-01-02T04:15:58.610Z,100
2023-01-02T04:17:05.636Z,100
2023-01-02T04:18:12.746Z,100
2023-01-02T04:19:19.353Z,100
2023-01-02T04:20:26.436Z,100
2023-01-02T04:21:33.501Z,100
2023-01-02T04:22:40.734Z,100
2023-01-02T04:23:47.767Z,100
2023-01-02T04:24:54.820Z,100
2023-01-02T04:26:01.431Z,100
2023-01-02T04:27:08.581Z,100
2023-01-02T04:28:15.692Z,100
2023-01-02T04:29:22.755Z,100
2023-01-02T04:30:29.356Z,100
2023-01-02T04:31:36.505Z,100
2023-01-02T04:32:44.109Z,100
2023-01-02T04:33:50.702Z,100
2023-01-02T04:34:57.754Z,100
2023-01-02T04:36:04.307Z,100
2023-01-02T04:37:11.501Z,100
2023-01-02T04:38:18.567Z,100
2023-01-02T04:39:25.677Z,100
2023-01-02T04:40:32.739Z,100
2023-01-02T04:41:39.357Z,100
2023-01-02T04:42:46.570Z,100
2023-01-02T04:43:53.574Z,100
2023-01-02T04:45:00.720Z,100
2023-01-02T04:46:07.834Z,100
2023-01-02T04:47:21.511Z,100
2023-01-02T04:48:21.500Z,100
2023-01-02T04:49:28.572Z,100
2023-01-02T04:50:35.701Z,100
2023-01-02T04:51:42.796Z,100
2023-01-02T04:52:49.415Z,100
2023-01-02T04:53:56.486Z,100
2023-01-02T04:55:03.564Z,100
2023-01-02T04:56:10.688Z,100
2023-01-02T04:57:17.872Z,100
2023-01-02T04:58:24.424Z,99
2023-01-02T04:59:31.507Z,99
2023-01-02T05:00:38.614Z,100
2023-01-02T05:01:45.824Z,99
2023-01-02T05:02:52.953Z,99
2023-01-02T05:03:59.388Z,99
2023-01-02T05:05:06.522Z,99
2023-01-02T05:06:13.583Z,99
2023-01-02T05:07:20.792Z,99
2023-01-02T05:08:27.782Z,99
2023-01-02T05:09:34.401Z,99
2023-01-02T05:11:48.563Z,99
2023-01-02T05:12:55.913Z,99
2023-01-02T05:14:07.112Z,99
2023-01-02T05:15:09.450Z,99
2023-01-02T05:16:16.538Z,99
2023-01-02T05:17:23.717Z,99
2023-01-02T05:18:30.765Z,99
2023-01-02T05:19:37.868Z,99
2023-01-02T05:20:44.410Z,99
2023-01-02T05:21:51.591Z,99
2023-01-02T05:22:58.643Z,99
2023-01-02T05:24:05.734Z,99
2023-01-02T05:25:12.314Z,99
2023-01-02T05:26:19.452Z,99
2023-01-02T05:27:26.533Z,99
2023-01-02T05:28:38.392Z,99
2023-01-02T05:29:40.739Z,99
2023-01-02T05:30:47.347Z,99
2023-01-02T05:31:54.475Z,99
2023-01-02T05:33:01.543Z,99
2023-01-02T05:34:08.630Z,99
2023-01-02T05:35:15.772Z,99
2023-01-02T05:37:29.491Z,99
2023-01-02T05:38:36.627Z,99
2023-01-02T05:39:43.612Z,99
2023-01-02T05:40:50.777Z,99
2023-01-02T05:41:57.347Z,99
2023-01-02T05:43:04.412Z,99
2023-01-02T05:44:11.539Z,99
2023-01-02T05:45:18.681Z,99
2023-01-02T05:46:25.889Z,99
2023-01-02T05:47:32.446Z,99
2023-01-02T05:48:39.474Z,99
2023-01-02T05:49:46.566Z,99
2023-01-02T05:50:53.625Z,99
2023-01-02T05:52:00.810Z,99
2023-01-02T05:53:07.318Z,99
2023-01-02T05:54:14.426Z,99
2023-01-02T05:55:21.588Z,99
2023-01-02T05:56:28.630Z,99
2023-01-02T05:57:35.830Z,99
2023-01-02T05:58:42.906Z,99
2023-01-02T05:59:49.503Z,99
2023-01-02T06:00:56.553Z,99
2023-01-02T06:02:03.871Z,99
2023-01-02T06:03:10.903Z,99
2023-01-02T06:04:19.823Z,99
2023-01-02T06:05:24.516Z,99
2023-01-02T06:06:31.589Z,99
2023-01-02T06:07:38.772Z,99
2023-01-02T06:08:45.790Z,99
2023-01-02T06:09:52.364Z,99
2023-01-02T06:10:59.497Z,99
2023-01-02T06:12:06.651Z,99
2023-01-02T06:13:13.710Z,99
2023-01-02T06:14:20.812Z,99
2023-01-02T06:15:27.436Z,99
2023-01-02T06:16:34.543Z,99
2023-01-02T06:17:41.645Z,98
2023-01-02T06:18:48.715Z,98
2023-01-02T06:19:55.839Z,98
2023-01-02T06:21:02.865Z,98
2023-01-02T06:22:09.485Z,98
2023-01-02T06:23:16.597Z,98
2023-01-02T06:24:23.705Z,98
2023-01-02T06:25:30.836Z,98
2023-01-02T06:26:37.374Z,98
2023-01-02T06:27:44.514Z,98
2023-01-02T06:28:51.612Z,98
2023-01-02T06:29:58.752Z,98
2023-01-02T06:31:05.854Z,98
2023-01-02T06:32:12.495Z,98
2023-01-02T06:33:19.535Z,98
2023-01-02T06:34:26.608Z,98
2023-01-02T06:35:33.703Z,98
2023-01-02T06:36:41.014Z,98
2023-01-02T06:37:47.411Z,98
2023-01-02T06:41:08.743Z,98
2023-01-02T06:42:15.902Z,98
2023-01-02T06:43:22.399Z,98
2023-01-02T06:44:29.581Z,98
2023-01-02T06:45:36.645Z,98
2023-01-02T06:46:43.738Z,98
2023-01-02T06:47:51.016Z,98
2023-01-02T06:48:57.432Z,98
2023-01-02T06:50:04.520Z,98
2023-01-02T06:51:11.632Z,98
2023-01-02T06:52:20.289Z,98
2023-01-02T06:53:25.962Z,96
2023-01-02T06:54:32.442Z,96
2023-01-02T06:55:39.561Z,96
2023-01-02T06:56:46.636Z,96
2023-01-02T06:57:53.807Z,94
2023-01-02T06:59:00.851Z,93
2023-01-02T07:00:07.450Z,96
2023-01-02T07:01:14.694Z,94
2023-01-02T07:02:21.802Z,96
2023-01-02T07:03:28.719Z,96
2023-01-02T07:04:35.362Z,96
2023-01-02T07:05:42.435Z,94
2023-01-02T07:06:49.607Z,94
2023-01-02T07:07:56.711Z,96
2023-01-02T07:09:03.743Z,98
2023-01-02T07:10:10.877Z,98
2023-01-02T07:11:17.475Z,98
2023-01-02T07:12:24.616Z,96
2023-01-02T07:13:31.648Z,96
2023-01-02T07:14:38.774Z,96
2023-01-02T07:15:46.452Z,96
2023-01-02T07:16:52.467Z,96
2023-01-02T07:17:59.559Z,96
2023-01-02T07:19:06.698Z,94
2023-01-02T07:20:13.831Z,96
2023-01-02T07:21:20.398Z,96
2023-01-02T07:22:27.564Z,96
2023-01-02T07:23:34.536Z,96
2023-01-02T07:24:41.691Z,94
2023-01-02T07:25:48.785Z,94
2023-01-02T07:26:55.338Z,96
2023-01-02T07:28:02.535Z,96
2023-01-02T07:29:09.591Z,93
2023-01-02T07:30:16.701Z,93
2023-01-02T07:31:23.890Z,93
2023-01-02T07:32:30.944Z,93
2023-01-02T07:33:37.488Z,93
2023-01-02T07:34:44.579Z,93
2023-01-02T07:35:51.880Z,93
2023-01-02T07:36:58.846Z,93
2023-01-02T07:38:05.461Z,93
2023-01-02T07:39:12.489Z,93
2023-01-02T07:40:19.596Z,93
2023-01-02T07:41:26.694Z,93
2023-01-02T07:42:33.851Z,93
2023-01-02T07:44:47.554Z,92
2023-01-02T07:45:54.645Z,92
2023-01-02T07:47:01.864Z,92
2023-01-02T07:48:08.868Z,92
2023-01-02T07:49:15.416Z,92
2023-01-02T07:50:22.485Z,92
2023-01-02T07:51:29.665Z,92
2023-01-02T07:52:36.775Z,92
2023-01-02T07:53:43.787Z,92
2023-01-02T07:54:50.947Z,92
2023-01-02T07:55:57.593Z,92
2023-01-02T07:57:04.590Z,92
2023-01-02T07:58:11.768Z,92
2023-01-02T07:59:18.840Z,92
2023-01-02T08:00:25.416Z,92
2023-01-02T08:01:32.668Z,92
2023-01-02T08:02:39.826Z,92
2023-01-02T08:03:46.865Z,92
2023-01-02T08:04:53.842Z,92
2023-01-02T08:06:00.429Z,92
2023-01-02T08:08:14.700Z,92
2023-01-02T08:09:21.741Z,92
2023-01-02T08:10:28.810Z,92
2023-01-02T08:11:35.426Z,92
2023-01-02T08:12:42.496Z,92
2023-01-02T08:13:49.700Z,92
2023-01-02T08:14:56.822Z,92
2023-01-02T08:16:03.836Z,92
2023-01-02T08:17:10.522Z,92
2023-01-02T08:18:17.539Z,92
2023-01-02T08:19:24.676Z,92
2023-01-02T08:20:31.799Z,92
2023-01-02T08:21:38.885Z,92
2023-01-02T08:22:45.407Z,92
2023-01-02T08:23:52.572Z,92
2023-01-02T08:24:59.698Z,92
2023-01-02T08:26:06.845Z,93
2023-01-02T08:27:13.931Z,93
2023-01-02T08:28:20.492Z,93
2023-01-02T08:29:27.620Z,93
2023-01-02T08:30:34.739Z,93
2023-01-02T08:31:43.890Z,93
2023-01-02T08:32:48.923Z,93
2023-01-02T08:33:55.480Z,93
2023-01-02T08:35:02.580Z,93
2023-01-02T08:36:09.776Z,93
2023-01-02T08:37:16.792Z,93
2023-01-02T08:38:23.896Z,94
2023-01-02T08:39:30.484Z,96
2023-01-02T08:40:37.602Z,96
2023-01-02T08:41:44.689Z,98
2023-01-02T08:42:51.900Z,98
2023-01-02T08:43:59.456Z,98
2023-01-02T08:45:05.442Z,98
2023-01-02T08:46:12.800Z,98
2023-01-02T08:48:26.835Z,98
2023-01-02T08:49:33.359Z,98
2023-01-02T08:50:40.534Z,98
2023-01-02T08:51:47.649Z,98
2023-01-02T08:52:54.735Z,98
2023-01-02T08:54:01.847Z,98
2023-01-02T08:55:08.420Z,98
2023-01-02T08:56:15.511Z,98
2023-01-02T08:57:22.655Z,98
2023-01-02T08:58:29.719Z,98
2023-01-02T08:59:36.849Z,98
2023-01-02T09:00:43.423Z,98
2023-01-02T09:01:50.732Z,98
2023-01-02T09:02:57.792Z,98
2023-01-02T09:04:11.573Z,98
2023-01-02T09:05:11.852Z,98
2023-01-02T09:06:22.105Z,98
2023-01-02T09:07:25.593Z,98
2023-01-02T09:08:32.631Z,98
2023-01-02T09:09:39.722Z,98
2023-01-02T09:10:46.862Z,98
2023-01-02T09:11:53.455Z,98
2023-01-02T09:13:00.535Z,98
2023-01-02T09:14:07.650Z,98
2023-01-02T09:15:14.743Z,98
2023-01-02T09:16:21.930Z,98
2023-01-02T09:17:28.491Z,98
2023-01-02T09:18:35.528Z,98
2023-01-02T09:19:42.653Z,98
2023-01-02T09:20:49.767Z,98
2023-01-02T09:21:56.867Z,98
2023-01-02T09:23:03.536Z,98
2023-01-02T09:24:10.608Z,98
2023-01-02T09:25:23.903Z,98
2023-01-02T09:26:24.761Z,98
2023-01-02T09:27:31.822Z,98
2023-01-02T09:28:38.980Z,98
2023-01-02T09:29:45.580Z,98
2023-01-02T09:30:52.729Z,98
2023-01-02T09:31:59.762Z,98
2023-01-02T09:33:06.939Z,98
2023-01-02T09:34:13.551Z,98
2023-01-02T09:36:27.648Z,98
2023-01-02T09:37:34.796Z,98
2023-01-02T09:38:41.867Z,98
2023-01-02T09:39:48.503Z,98
2023-01-02T09:40:55.566Z,87
2023-01-02T09:42:02.633Z,98
2023-01-02T09:43:09.821Z,98
2023-01-02T09:44:16.872Z,98
2023-01-02T09:45:23.450Z,98
2023-01-02T09:46:30.675Z,98
2023-01-02T09:47:37.753Z,98
2023-01-02T09:48:44.776Z,98
2023-01-02T09:49:51.897Z,98
2023-01-02T09:52:05.576Z,98
2023-01-02T09:53:12.670Z,98
2023-01-02T09:54:19.816Z,98
2023-01-02T09:55:26.890Z,98
2023-01-02T09:56:33.961Z,98
2023-01-02T09:57:40.659Z,98
2023-01-02T09:58:47.791Z,98
2023-01-02T09:59:54.773Z,98
2023-01-02T10:01:01.891Z,98
2023-01-02T10:02:08.497Z,98
2023-01-02T10:03:15.879Z,98
2023-01-02T10:04:22.773Z,98
2023-01-02T10:05:29.825Z,98
2023-01-02T10:06:36.950Z,98
2023-01-02T10:07:43.472Z,98
2023-01-02T10:08:50.808Z,98
2023-01-02T10:09:57.713Z,98
2023-01-02T10:11:04.805Z,98
2023-01-02T10:12:12.441Z,98
2023-01-02T10:13:18.537Z,98
2023-01-02T10:14:33.914Z,98
2023-01-02T10:15:32.709Z,98
2023-01-02T10:16:39.803Z,98
2023-01-02T10:17:46.951Z,98
2023-01-02T10:18:53.465Z,98
2023-01-02T10:20:00.686Z,98
2023-01-02T10:21:07.747Z,98
2023-01-02T10:22:14.790Z,98
2023-01-02T10:23:21.905Z,98
2023-01-02T10:24:28.549Z,98
2023-01-02T10:25:35.686Z,98
2023-01-02T10:26:42.684Z,98
2023-01-02T10:27:49.851Z,98
2023-01-02T10:28:56.950Z,98
2023-01-02T10:30:03.501Z,98
2023-01-02T10:31:10.774Z,98
2023-01-02T10:32:17.689Z,98
2023-01-02T10:33:25.840Z,98
2023-01-02T10:34:50.151Z,98
2023-01-02T10:35:38.547Z,98
2023-01-02T10:36:45.726Z,98
2023-01-02T10:37:52.760Z,98
2023-01-02T10:38:59.884Z,98
2023-01-02T10:40:06.947Z,98
2023-01-02T10:41:13.556Z,98
2023-01-02T10:42:20.655Z,98
2023-01-02T10:43:27.750Z,98
2023-01-02T10:44:34.848Z,98
2023-01-02T10:45:41.924Z,98
2023-01-02T10:46:48.679Z,98
2023-01-02T10:47:55.777Z,98
2023-01-02T10:49:02.724Z,98
2023-01-02T10:50:09.887Z,98
2023-01-02T10:51:16.485Z,98
2023-01-02T10:52:23.567Z,98
2023-01-02T10:53:30.648Z,98
2023-01-02T10:55:44.835Z,98
2023-01-02T10:56:51.509Z,98
2023-01-02T10:57:58.584Z,98
2023-01-02T10:59:05.679Z,98
2023-01-02T11:00:12.808Z,98
2023-01-02T11:01:20.150Z,98
2023-01-02T11:02:27.248Z,98
2023-01-02T11:04:40.673Z,98
2023-01-02T11:05:47.818Z,98
2023-01-02T11:06:54.858Z,98
2023-01-02T11:08:01.559Z,98
2023-01-02T11:09:08.592Z,98
2023-01-02T11:10:15.670Z,98
2023-01-02T11:11:22.787Z,97
2023-01-02T11:12:29.937Z,98
2023-01-02T11:13:36.615Z,98
2023-01-02T11:14:46.186Z,98
2023-01-02T11:15:50.857Z,98
2023-01-02T11:16:57.832Z,97
2023-01-02T11:18:04.911Z,98
2023-01-02T11:19:14.923Z,97
2023-01-02T11:20:20.021Z,97
2023-01-02T11:21:25.707Z,97
2023-01-02T11:22:32.836Z,97
2023-01-02T11:23:39.948Z,97
2023-01-02T11:24:47.095Z,97
2023-01-02T11:25:53.661Z,97
2023-01-02T11:27:01.737Z,97
2023-01-02T11:28:07.949Z,97
2023-01-02T11:29:14.902Z,97
2023-01-02T11:30:21.491Z,97
2023-01-02T11:31:28.912Z,97
2023-01-02T11:32:35.765Z,98
2023-01-02T11:33:42.769Z,97
2023-01-02T11:34:49.923Z,97
2023-01-02T11:35:56.574Z,97
2023-01-02T11:37:03.738Z,97
2023-01-02T11:38:10.833Z,97
2023-01-02T11:39:17.810Z,97
2023-01-02T11:40:25.524Z,97
2023-01-02T11:41:31.571Z,97
2023-01-02T11:42:39.050Z,97
2023-01-02T11:43:48.687Z,97
2023-01-02T11:44:53.940Z,97
2023-01-02T11:46:00.225Z,98
2023-01-02T11:47:07.017Z,98
2023-01-02T11:48:13.684Z,98
2023-01-02T11:49:23.693Z,98
2023-01-02T11:50:27.980Z,98
2023-01-02T11:51:35.010Z,98
2023-01-02T11:52:41.641Z,97
2023-01-02T11:53:48.686Z,97
2023-01-02T11:54:55.722Z,97
2023-01-02T11:56:02.838Z,97
2023-01-02T11:57:15.288Z,97
2023-01-02T11:59:23.932Z,97
2023-01-02T12:00:30.793Z,97
2023-01-02T12:01:37.917Z,98
2023-01-02T12:02:45.008Z,98
2023-01-02T12:03:51.623Z,97
2023-01-02T12:04:58.788Z,98
2023-01-02T12:06:05.783Z,98
2023-01-02T12:07:12.839Z,98
2023-01-02T12:08:19.954Z,98
2023-01-02T12:09:26.548Z,98
2023-01-02T12:10:33.745Z,98
2023-01-02T12:11:40.809Z,98
2023-01-02T12:12:47.883Z,98
2023-01-02T12:13:55.105Z,98
2023-01-02T12:15:01.592Z,98
2023-01-02T12:16:08.757Z,98
2023-01-02T12:17:15.783Z,98
2023-01-02T12:18:22.880Z,98
2023-01-02T12:19:30.078Z,98
2023-01-02T12:20:36.581Z,97
2023-01-02T12:21:43.694Z,97
2023-01-02T12:22:50.848Z,97
2023-01-02T12:23:57.889Z,97
2023-01-02T12:25:04.464Z,96
2023-01-02T12:26:11.608Z,93
2023-01-02T12:27:18.778Z,93
2023-01-02T12:28:25.812Z,92
2023-01-02T12:29:48.223Z,92
2023-01-02T12:30:39.468Z,92
2023-01-02T12:32:53.694Z,92
2023-01-02T12:34:00.757Z,93
2023-01-02T12:35:07.957Z,93
2023-01-02T12:36:15.021Z,93
2023-01-02T12:37:21.590Z,93
2023-01-02T12:38:33.245Z,93
2023-01-02T12:39:35.823Z,93
2023-01-02T12:40:42.872Z,93
2023-01-02T12:42:01.871Z,93
2023-01-02T12:42:56.672Z,93
2023-01-02T12:44:03.703Z,92
2023-01-02T12:45:10.797Z,93
2023-01-02T12:46:18.037Z,93
2023-01-02T12:47:24.980Z,93
2023-01-02T12:48:31.595Z,93
2023-01-02T12:49:38.738Z,93
2023-01-02T12:50:48.995Z,93
2023-01-02T12:51:52.934Z,93
2023-01-02T12:52:59.592Z,93
2023-01-02T12:54:20.633Z,92
2023-01-02T12:55:13.701Z,93
2023-01-02T12:56:20.868Z,92
2023-01-02T12:57:27.965Z,92
2023-01-02T12:58:34.520Z,92
2023-01-02T12:59:41.620Z,92
2023-01-02T13:00:48.851Z,92
2023-01-02T13:03:03.075Z,92
2023-01-02T13:04:10.058Z,92
2023-01-02T13:05:16.616Z,92
2023-01-02T13:06:43.541Z,92
2023-01-02T13:07:30.912Z,92
2023-01-02T13:08:38.495Z,92
2023-01-02T13:09:44.508Z,92
2023-01-02T13:10:51.697Z,92
2023-01-02T13:11:58.787Z,92
2023-01-02T13:13:05.847Z,92
2023-01-02T13:14:12.901Z,92
2023-01-02T13:15:19.535Z,92
2023-01-02T13:16:26.747Z,92
2023-01-02T13:17:33.811Z,92
2023-01-02T13:18:59.783Z,93
2023-01-02T13:19:48.002Z,92
2023-01-02T13:20:54.540Z,93
2023-01-02T13:22:01.685Z,93
2023-01-02T13:23:08.824Z,93
2023-01-02T13:24:15.920Z,92
2023-01-02T13:25:22.931Z,92
2023-01-02T13:26:29.535Z,92
2023-01-02T13:27:36.675Z,92
2023-01-02T13:28:43.731Z,92
2023-01-02T13:29:50.822Z,92
2023-01-02T13:31:26.681Z,92
2023-01-02T13:32:04.687Z,92
2023-01-02T13:33:11.713Z,92
2023-01-02T13:34:22.294Z,92
2023-01-02T13:35:25.898Z,92
2023-01-02T13:36:32.936Z,92
2023-01-02T13:37:39.588Z,92
2023-01-02T13:38:46.684Z,92
2023-01-02T13:39:53.788Z,92
2023-01-02T13:41:00.914Z,92
2023-01-02T13:42:09.762Z,92
2023-01-02T13:43:14.607Z,92
2023-01-02T13:44:21.658Z,91
2023-01-02T13:45:28.810Z,91
2023-01-02T13:47:02.850Z,91
2023-01-02T13:47:43.109Z,91
2023-01-02T13:48:49.562Z,91
2023-01-02T13:49:56.710Z,91
2023-01-02T13:51:03.797Z,91
2023-01-02T13:52:11.042Z,91
2023-01-02T13:53:18.024Z,91
2023-01-02T13:54:24.539Z,91
2023-01-02T13:55:31.824Z,91
2023-01-02T13:56:38.842Z,91
2023-01-02T13:57:45.995Z,91
2023-01-02T13:58:53.004Z,91
2023-01-02T14:01:06.809Z,91
2023-01-02T14:02:13.978Z,91
2023-01-02T14:03:21.114Z,91
2023-01-02T14:04:28.038Z,91
2023-01-02T14:06:41.725Z,91
2023-01-02T14:07:48.861Z,91
2023-01-02T14:08:55.942Z,91
2023-01-02T14:10:02.979Z,91
2023-01-02T14:11:09.642Z,91
2023-01-02T14:12:16.745Z,91
2023-01-02T14:13:23.849Z,91
2023-01-02T14:14:30.903Z,91
2023-01-02T14:15:38.081Z,91
2023-01-02T14:16:44.633Z,91
2023-01-02T14:17:51.713Z,91
2023-01-02T14:18:58.854Z,91
2023-01-02T14:20:05.937Z,91
2023-01-02T14:21:13.055Z,91
2023-01-02T14:22:19.654Z,91
2023-01-02T14:23:26.778Z,91
2023-01-02T14:24:33.833Z,91
2023-01-02T14:25:40.963Z,91
2023-01-02T14:26:47.550Z,91
2023-01-02T14:27:54.667Z,91
2023-01-02T14:29:01.743Z,91
2023-01-02T14:30:08.886Z,91
2023-01-02T14:31:16.057Z,91
2023-01-02T14:32:22.519Z,91
2023-01-02T14:33:29.679Z,91
2023-01-02T14:34:36.740Z,91
2023-01-02T14:35:43.813Z,91
2023-01-02T14:36:50.992Z,91
2023-01-02T14:37:57.602Z,91
2023-01-02T14:39:04.655Z,91
2023-01-02T14:40:11.725Z,91
2023-01-02T14:41:18.902Z,91
2023-01-02T14:42:31.092Z,91
2023-01-02T14:43:32.623Z,91
2023-01-02T14:44:39.674Z,91
2023-01-02T14:45:46.749Z,91
2023-01-02T14:46:53.855Z,91
2023-01-02T14:48:01.024Z,91
2023-01-02T14:49:25.228Z,91
2023-01-02T14:50:14.678Z,91
2023-01-02T14:51:24.938Z,91
2023-01-02T14:52:29.075Z,91
2023-01-02T14:53:36.073Z,91
2023-01-02T14:54:42.567Z,91
2023-01-02T14:55:49.669Z,91
2023-01-02T14:56:56.795Z,91
2023-01-02T14:58:03.988Z,91
2023-01-02T14:59:10.988Z,91
2023-01-02T15:00:17.624Z,91
2023-01-02T15:01:42.669Z,90
2023-01-02T15:02:32.051Z,90
2023-01-02T15:03:39.058Z,90
2023-01-02T15:04:45.996Z,90
2023-01-02T15:05:52.530Z,89
2023-01-02T15:07:03.304Z,89
2023-01-02T15:08:06.898Z,89
2023-01-02T15:10:21.088Z,89
2023-01-02T15:11:27.624Z,89
2023-01-02T15:12:34.763Z,89
2023-01-02T15:14:05.215Z,89
2023-01-02T15:14:48.950Z,89
2023-01-02T15:15:56.050Z,89
2023-01-02T15:17:02.607Z,88
2023-01-02T15:18:09.793Z,88
2023-01-02T15:19:16.852Z,88
2023-01-02T15:20:23.895Z,88
2023-01-02T15:21:31.060Z,88
2023-01-02T15:22:37.866Z,88
2023-01-02T15:23:44.684Z,88
2023-01-02T15:24:51.868Z,88
2023-01-02T15:26:33.358Z,88
2023-01-02T15:27:06.042Z,88
2023-01-02T15:29:19.777Z,88
2023-01-02T15:30:26.832Z,88
2023-01-02T15:31:33.995Z,88
2023-01-02T15:32:41.116Z,88
2023-01-02T15:33:47.662Z,88
2023-01-02T15:34:54.732Z,88
2023-01-02T15:36:01.849Z,88
2023-01-02T15:37:08.922Z,88
2023-01-02T15:38:15.624Z,88
2023-01-02T15:39:22.633Z,88
2023-01-02T15:40:29.734Z,88
2023-01-02T15:41:36.892Z,88
2023-01-02T15:42:43.988Z,88
2023-01-02T15:43:50.516Z,89
2023-01-02T15:44:57.686Z,89
2023-01-02T15:46:04.797Z,89
2023-01-02T15:47:15.570Z,89
2023-01-02T15:48:19.053Z,89
2023-01-02T15:49:25.528Z,89
2023-01-02T15:50:32.606Z,89
2023-01-02T15:51:41.223Z,89
2023-01-02T15:52:46.970Z,89
2023-01-02T15:53:58.580Z,89
2023-01-02T15:55:00.532Z,89
2023-01-02T15:56:07.640Z,89
2023-01-02T15:57:15.040Z,90
2023-01-02T15:58:22.007Z,89
2023-01-02T15:59:28.977Z,89
2023-01-02T16:00:35.618Z,89
2023-01-02T16:01:42.828Z,89
2023-01-02T16:02:49.913Z,89
2023-01-02T16:04:02.564Z,89
2023-01-02T16:05:03.976Z,89
2023-01-02T16:06:10.608Z,89
2023-01-02T16:07:17.656Z,89
2023-01-02T16:08:25.029Z,89
2023-01-02T16:09:32.008Z,89
2023-01-02T16:10:39.035Z,89
2023-01-02T16:11:45.528Z,89
2023-01-02T16:13:59.856Z,89
2023-01-02T16:15:06.884Z,89
2023-01-02T16:16:15.969Z,89